Time;durP1;ratioP1;P1;durP2;ratioP2;P2;SDS_P1;SDS_P2;PMS_P1;PMS_P2;Temp;Humidity;BMP_temperature;BMP_pressure;BME280_temperature;BME280_humidity;BME280_pressure;Samples;Min_cycle;Max_cycle;Signal;HPM_P1;HPM_P2
2022/07/15 00:00:13;;;;;;;2.90;2.17;;;12.20;99.90;;;;;;4920854;28;91485;-32
2022/07/15 00:02:39;;;;;;;2.83;2.22;;;12.20;99.90;;;;;;4921564;28;90753;-32
2022/07/15 00:05:06;;;;;;;3.88;2.40;;;12.20;99.90;;;;;;4921339;28;87759;-34
2022/07/15 00:07:32;;;;;;;4.78;2.63;;;12.20;99.90;;;;;;4942318;23;89783;-30
2022/07/15 00:10:18;;;;;;;6.20;2.55;;;12.20;99.90;;;;;;4903299;28;89760;-32
2022/07/15 00:12:55;;;;;;;3.13;2.17;;;12.30;99.90;;;;;;4903328;28;89602;-30
2022/07/15 00:15:24;;;;;;;6.05;3.35;;;12.20;99.90;;;;;;4903524;28;89430;-34
2022/07/15 00:17:50;;;;;;;5.55;2.60;;;12.30;99.90;;;;;;4902749;28;90991;-31
2022/07/15 00:20:17;;;;;;;11.13;3.22;;;12.30;99.90;;;;;;4902660;28;89712;-33
2022/07/15 00:22:44;;;;;;;6.97;2.50;;;12.30;99.90;;;;;;4902672;28;89780;-33
2022/07/15 00:25:11;;;;;;;6.05;3.65;;;12.30;99.90;;;;;;4902480;28;90305;-31
2022/07/15 00:27:50;;;;;;;5.90;2.40;;;12.40;99.90;;;;;;4902503;28;90258;-30
2022/07/15 00:30:16;;;;;;;3.13;2.58;;;12.40;99.90;;;;;;4902932;28;90766;-30
2022/07/15 00:32:41;;;;;;;5.78;2.90;;;12.50;99.90;;;;;;4901874;28;89432;-31
2022/07/15 00:35:07;;;;;;;4.07;2.70;;;12.50;99.90;;;;;;4902605;28;88426;-32
2022/07/15 00:37:33;;;;;;;3.42;2.97;;;12.50;99.90;;;;;;4902643;28;90589;-33
2022/07/15 00:39:58;;;;;;;7.45;2.78;;;12.60;99.90;;;;;;4902008;28;89696;-37
2022/07/15 00:45:24;;;;;;;9.30;2.53;;;12.60;99.90;;;;;;4900789;28;90193;-30
2022/07/15 00:47:54;;;;;;;6.15;3.10;;;12.70;99.90;;;;;;4902155;28;90747;-31
2022/07/15 00:50:21;;;;;;;8.57;3.10;;;12.70;99.90;;;;;;4900840;28;90642;-34
2022/07/15 00:53:16;;;;;;;7.38;2.05;;;12.70;99.90;;;;;;4902154;28;91084;-32
2022/07/15 00:55:43;;;;;;;7.10;2.28;;;12.70;99.90;;;;;;4898458;28;87792;-33
2022/07/15 00:58:14;;;;;;;5.72;2.10;;;12.70;99.90;;;;;;4902027;28;90461;-29
2022/07/15 01:00:41;;;;;;;3.88;2.65;;;12.80;99.90;;;;;;4902763;28;90031;-31
2022/07/15 01:03:07;;;;;;;7.32;2.95;;;12.80;99.90;;;;;;4902130;28;89712;-29
2022/07/15 01:05:33;;;;;;;3.78;2.47;;;12.80;99.90;;;;;;4902500;28;88444;-34
2022/07/15 01:07:59;;;;;;;2.78;2.17;;;12.80;99.90;;;;;;4902038;28;90338;-33
2022/07/15 01:10:25;;;;;;;5.03;2.72;;;12.80;99.90;;;;;;4902084;28;89828;-29
2022/07/15 01:12:52;;;;;;;8.73;2.75;;;12.70;99.90;;;;;;4902661;28;89421;-34
2022/07/15 01:15:18;;;;;;;4.15;2.33;;;12.70;99.90;;;;;;4901825;28;90435;-30
2022/07/15 01:17:45;;;;;;;7.95;2.70;;;12.70;99.90;;;;;;4901659;28;90520;-30
2022/07/15 01:20:12;;;;;;;4.78;2.30;;;12.80;99.90;;;;;;4901668;28;89709;-31
2022/07/15 01:22:38;;;;;;;2.95;2.08;;;12.80;99.90;;;;;;4902068;28;89752;-30
2022/07/15 01:25:04;;;;;;;3.38;2.00;;;12.80;99.90;;;;;;4901640;28;88095;-30
2022/07/15 01:27:30;;;;;;;4.45;2.17;;;12.80;99.90;;;;;;4902083;28;90331;-32
2022/07/15 01:29:55;;;;;;;4.00;2.50;;;12.80;99.90;;;;;;4901629;28;89706;-30
2022/07/15 01:32:21;;;;;;;6.78;2.38;;;12.80;99.90;;;;;;4901346;28;90044;-34
2022/07/15 01:34:49;;;;;;;3.22;2.50;;;12.80;99.90;;;;;;4901660;28;89412;-30
2022/07/15 01:37:15;;;;;;;;;;;12.80;99.90;;;;;;4901929;28;89303;-33
2022/07/15 01:39:42;;;;;;;5.07;2.63;;;12.80;99.90;;;;;;4902487;28;90639;-33
2022/07/15 01:42:08;;;;;;;4.45;2.67;;;12.80;99.90;;;;;;4901418;28;90942;-29
2022/07/15 01:44:33;;;;;;;5.40;2.50;;;12.90;99.90;;;;;;4900394;28;89275;-33
2022/07/15 01:46:59;;;;;;;5.45;2.10;;;12.90;99.90;;;;;;4901165;28;90103;-31
2022/07/15 01:49:25;;;;;;;5.15;2.55;;;12.90;99.90;;;;;;4901209;28;89847;-31
2022/07/15 01:51:55;;;;;;;8.65;2.70;;;12.90;99.90;;;;;;4901045;28;89736;-34
2022/07/15 01:54:26;;;;;;;3.80;2.83;;;12.90;99.90;;;;;;4901356;28;89331;-32
2022/07/15 01:56:52;;;;;;;13.88;3.83;;;12.90;99.90;;;;;;4901037;28;90565;-29
2022/07/15 01:59:22;;;;;;;9.20;2.47;;;12.90;99.90;;;;;;4901579;28;89550;-31
2022/07/15 02:01:47;;;;;;;6.63;3.00;;;12.90;99.90;;;;;;4901439;28;89167;-31
2022/07/15 02:04:13;;;;;;;3.83;2.92;;;12.90;99.90;;;;;;4900429;28;89315;-30
2022/07/15 02:06:39;;;;;;;4.30;2.92;;;12.90;99.90;;;;;;4901201;28;91131;-31
2022/07/15 02:09:05;;;;;;;6.03;2.22;;;12.90;99.90;;;;;;4901099;28;89814;-30
2022/07/15 02:11:30;;;;;;;8.27;2.67;;;12.90;99.90;;;;;;4900959;28;88011;-31
2022/07/15 02:13:59;;;;;;;9.18;2.38;;;12.90;99.90;;;;;;4901505;28;89588;-30
2022/07/15 02:16:25;;;;;;;12.55;2.75;;;12.90;99.90;;;;;;4901925;28;90350;-31
2022/07/15 02:18:52;;;;;;;6.10;3.00;;;12.90;99.90;;;;;;4900882;28;90943;-32
2022/07/15 02:21:18;;;;;;;4.22;3.10;;;12.80;99.90;;;;;;4900483;28;90108;-32
2022/07/15 02:23:43;;;;;;;3.45;3.00;;;12.80;99.90;;;;;;4900999;28;88101;-32
2022/07/15 02:26:09;;;;;;;3.47;2.50;;;12.80;99.90;;;;;;4900076;28;89833;-31
2022/07/15 02:28:34;;;;;;;6.25;3.90;;;12.70;99.90;;;;;;4900634;28;91387;-30
2022/07/15 02:31:00;;;;;;;4.10;2.42;;;12.70;99.90;;;;;;4900582;28;90699;-33
2022/07/15 02:33:26;;;;;;;3.00;2.78;;;12.60;99.90;;;;;;4901161;28;89901;-31
2022/07/15 02:35:52;;;;;;;3.83;3.17;;;12.60;99.90;;;;;;4900521;28;90400;-30
2022/07/15 02:38:18;;;;;;;8.70;3.17;;;12.60;99.90;;;;;;4899958;28;89568;-34
2022/07/15 02:40:44;;;;;;;3.97;2.83;;;12.50;99.90;;;;;;4900942;28;89618;-34
2022/07/15 02:43:10;;;;;;;7.30;3.42;;;12.50;99.90;;;;;;4900601;28;88789;-31
2022/07/15 02:45:37;;;;;;;4.65;3.00;;;12.40;99.90;;;;;;4900425;28;90129;-32
2022/07/15 02:48:03;;;;;;;8.02;2.35;;;12.40;99.90;;;;;;4900360;28;90413;-31
2022/07/15 02:50:29;;;;;;;4.60;2.33;;;12.40;99.90;;;;;;4900721;28;90411;-30
2022/07/15 02:52:55;;;;;;;5.03;2.85;;;12.30;99.90;;;;;;4901112;28;90097;-33
2022/07/15 02:55:21;;;;;;;5.53;3.53;;;12.30;99.90;;;;;;4899561;28;89246;-30
2022/07/15 02:57:46;;;;;;;5.68;3.05;;;12.30;99.90;;;;;;4893330;28;89826;-34
2022/07/15 03:00:14;;;;;;;5.65;3.22;;;12.30;99.90;;;;;;4900512;28;89759;-30
2022/07/15 03:02:40;;;;;;;5.55;2.65;;;12.20;99.90;;;;;;4900841;28;89691;-30
2022/07/15 03:05:07;;;;;;;6.88;3.05;;;12.10;99.90;;;;;;4899708;28;89082;-31
2022/07/15 03:07:33;;;;;;;6.35;3.25;;;12.10;99.90;;;;;;4900592;28;90280;-32
2022/07/15 03:09:58;;;;;;;10.38;3.63;;;12.10;99.90;;;;;;4900077;28;90331;-33
2022/07/15 03:12:24;;;;;;;5.45;2.97;;;12.00;99.90;;;;;;4901719;28;88994;-31
2022/07/15 03:14:50;;;;;;;7.03;2.88;;;12.00;99.90;;;;;;4903640;28;89300;-33
2022/07/15 03:17:16;;;;;;;12.68;3.67;;;11.90;99.90;;;;;;4903450;28;91056;-30
2022/07/15 03:19:42;;;;;;;4.82;2.78;;;11.90;99.90;;;;;;4903762;28;90842;-33
2022/07/15 03:22:07;;;;;;;4.75;2.75;;;11.80;99.90;;;;;;4902778;28;89591;-30
2022/07/15 03:24:33;;;;;;;5.53;2.78;;;11.80;99.90;;;;;;4904030;28;89055;-33
2022/07/15 03:26:59;;;;;;;11.27;3.33;;;11.80;99.90;;;;;;4903353;28;90088;-31
2022/07/15 03:29:26;;;;;;;7.05;3.42;;;11.80;99.90;;;;;;4903854;28;90137;-32
2022/07/15 03:31:52;;;;;;;7.93;3.35;;;11.80;99.90;;;;;;4903745;28;89320;-30
2022/07/15 03:34:18;;;;;;;10.07;3.67;;;11.70;99.90;;;;;;4903331;28;91986;-31
2022/07/15 03:36:44;;;;;;;6.57;3.63;;;11.70;99.90;;;;;;4903057;28;89515;-34
2022/07/15 03:39:10;;;;;;;6.28;3.75;;;11.70;99.90;;;;;;4903017;28;89469;-32
2022/07/15 03:41:35;;;;;;;6.35;3.38;;;11.70;99.90;;;;;;4902913;28;89011;-30
2022/07/15 03:44:02;;;;;;;8.32;4.68;;;11.70;99.90;;;;;;4903002;28;90444;-34
2022/07/15 03:46:29;;;;;;;8.15;3.08;;;11.60;99.90;;;;;;4903538;28;89786;-30
2022/07/15 03:48:55;;;;;;;5.53;3.20;;;11.60;99.90;;;;;;4902639;28;89106;-33
2022/07/15 03:51:21;;;;;;;5.63;3.08;;;11.60;99.90;;;;;;4903878;28;90199;-32
2022/07/15 03:53:47;;;;;;;10.07;3.60;;;11.60;99.90;;;;;;4903049;28;90317;-32
2022/07/15 03:56:12;;;;;;;5.35;3.65;;;11.60;99.90;;;;;;4902617;28;89323;-34
2022/07/15 03:58:38;;;;;;;8.10;3.35;;;11.60;99.90;;;;;;4903563;28;89530;-32
2022/07/15 04:01:04;;;;;;;5.63;2.97;;;11.60;99.90;;;;;;4903066;28;88848;-29
2022/07/15 04:03:30;;;;;;;5.90;3.80;;;11.60;99.90;;;;;;4903109;28;90267;-34
2022/07/15 04:05:56;;;;;;;6.45;3.35;;;11.60;99.90;;;;;;4902520;28;90046;-29
2022/07/15 04:08:21;;;;;;;8.32;3.38;;;11.60;99.90;;;;;;4902506;28;90511;-29
2022/07/15 04:10:47;;;;;;;6.53;3.78;;;11.70;99.90;;;;;;4903284;28;88057;-30
2022/07/15 04:13:13;;;;;;;6.30;3.35;;;11.70;99.90;;;;;;4902119;28;90177;-30
2022/07/15 04:15:38;;;;;;;6.75;3.70;;;11.70;99.90;;;;;;4903064;28;89861;-30
2022/07/15 04:18:04;;;;;;;10.73;3.90;;;11.80;99.90;;;;;;4901925;28;89653;-31
2022/07/15 04:20:29;;;;;;;4.13;3.72;;;11.80;99.90;;;;;;4903681;28;90508;-29
2022/07/15 04:22:55;;;;;;;4.03;3.15;;;11.80;99.90;;;;;;4901080;28;90124;-29
2022/07/15 04:25:21;;;;;;;7.20;3.40;;;11.80;99.90;;;;;;4901134;28;89745;-31
2022/07/15 04:27:48;;;;;;;4.60;2.83;;;11.80;99.90;;;;;;4903347;28;89823;-31
2022/07/15 04:30:14;;;;;;;7.30;3.45;;;11.80;99.90;;;;;;4906403;28;88848;-31
2022/07/15 04:32:40;;;;;;;10.23;3.90;;;11.80;99.90;;;;;;4909294;28;90058;-31
2022/07/15 04:35:06;;;;;;;4.32;2.47;;;11.80;99.90;;;;;;4902346;28;89818;-31
2022/07/15 04:37:32;;;;;;;3.88;2.42;;;11.90;99.90;;;;;;4901400;28;89985;-29
2022/07/15 04:39:58;;;;;;;4.88;2.83;;;11.90;99.90;;;;;;4902755;28;88141;-32
2022/07/15 04:42:24;;;;;;;5.15;2.42;;;11.80;99.90;;;;;;4902233;28;90977;-30
2022/07/15 04:44:49;;;;;;;7.35;3.75;;;11.80;99.90;;;;;;4903320;28;89840;-31
2022/07/15 04:47:16;;;;;;;7.05;3.30;;;11.90;99.90;;;;;;4902210;28;89621;-31
2022/07/15 04:52:26;;;;;;;6.45;3.05;;;12.00;99.90;;;;;;4902465;28;90164;-34
2022/07/15 04:54:53;;;;;;;6.28;3.13;;;12.10;99.90;;;;;;4902423;28;90496;-29
2022/07/15 04:57:18;;;;;;;7.40;3.22;;;12.10;99.90;;;;;;4901952;28;90636;-33
2022/07/15 04:59:44;;;;;;;8.68;2.53;;;12.20;99.90;;;;;;4903043;28;88370;-31
2022/07/15 05:02:10;;;;;;;4.80;3.10;;;12.20;99.90;;;;;;4901409;28;90360;-33
2022/07/15 05:04:35;;;;;;;3.85;2.42;;;12.30;99.90;;;;;;4902613;28;90237;-31
2022/07/15 05:07:01;;;;;;;4.82;3.15;;;12.30;99.90;;;;;;4901426;28;91242;-31
2022/07/15 05:09:27;;;;;;;4.20;2.90;;;12.40;99.90;;;;;;4902802;28;90644;-32
2022/07/15 05:11:52;;;;;;;5.82;2.60;;;12.50;99.90;;;;;;4902651;28;90279;-32
2022/07/15 05:14:18;;;;;;;4.80;2.33;;;12.50;99.90;;;;;;4901458;28;89583;-34
2022/07/15 05:16:44;;;;;;;3.63;2.42;;;12.60;99.90;;;;;;4902378;28;88501;-33
2022/07/15 05:19:09;;;;;;;4.80;2.63;;;12.60;99.90;;;;;;4901871;28;89544;-32
2022/07/15 05:21:35;;;;;;;4.35;2.75;;;12.70;99.90;;;;;;4902129;28;90141;-30
2022/07/15 05:24:01;;;;;;;10.38;2.85;;;12.80;99.90;;;;;;4901244;28;90181;-32
2022/07/15 05:26:26;;;;;;;7.00;2.35;;;12.80;99.90;;;;;;4901440;28;89794;-35
2022/07/15 05:28:52;;;;;;;10.20;2.88;;;12.90;99.90;;;;;;4902380;28;89278;-29
2022/07/15 05:31:18;;;;;;;4.88;2.28;;;13.00;99.90;;;;;;4901533;28;90372;-33
2022/07/15 05:33:43;;;;;;;4.78;2.25;;;13.00;99.90;;;;;;4901398;28;89655;-30
2022/07/15 05:36:13;;;;;;;7.63;2.22;;;13.10;99.90;;;;;;4900815;28;89606;-33
2022/07/15 05:38:39;;;;;;;33.42;5.88;;;13.10;99.90;;;;;;4901557;28;90210;-30
2022/07/15 05:41:04;;;;;;;16.77;4.40;;;13.20;99.90;;;;;;4901644;28;90254;-33
2022/07/15 05:43:30;;;;;;;9.73;2.58;;;13.30;99.90;;;;;;4900953;28;90503;-31
2022/07/15 05:45:56;;;;;;;20.55;4.60;;;13.40;99.90;;;;;;4901048;28;89464;-29
2022/07/15 05:48:23;;;;;;;5.90;2.33;;;13.40;99.90;;;;;;4901298;28;89466;-33
2022/07/15 05:50:49;;;;;;;4.00;2.58;;;13.50;99.90;;;;;;4901564;28;92214;-33
2022/07/15 05:53:15;;;;;;;3.83;2.50;;;13.50;99.90;;;;;;4901653;28;90348;-31
2022/07/15 05:55:40;;;;;;;3.38;2.00;;;13.60;99.90;;;;;;4901808;28;90054;-30
2022/07/15 05:58:07;;;;;;;4.97;2.10;;;13.70;99.90;;;;;;4901203;28;89034;-30
2022/07/15 06:00:34;;;;;;;9.88;2.47;;;13.70;99.90;;;;;;4901241;28;90350;-34
2022/07/15 06:02:59;;;;;;;2.38;1.50;;;13.80;99.90;;;;;;4901620;28;89784;-31
2022/07/15 06:05:25;;;;;;;33.30;5.80;;;13.80;99.90;;;;;;4901225;28;88574;-31
2022/07/15 06:07:50;;;;;;;9.80;2.53;;;13.90;99.90;;;;;;4900332;28;89405;-32
2022/07/15 06:10:16;;;;;;;5.47;2.08;;;13.90;99.90;;;;;;4900925;28;90234;-31
2022/07/15 06:12:42;;;;;;;6.93;2.53;;;13.90;99.90;;;;;;4900705;28;89629;-32
2022/07/15 06:15:08;;;;;;;5.20;1.88;;;13.90;99.90;;;;;;4900858;28;89536;-31
2022/07/15 06:17:34;;;;;;;9.95;2.20;;;13.90;99.90;;;;;;4900939;28;88876;-33
2022/07/15 06:20:00;;;;;;;8.35;2.35;;;13.90;99.90;;;;;;4901018;28;90454;-33
2022/07/15 06:22:26;;;;;;;5.57;2.00;;;13.90;99.90;;;;;;4888009;28;89730;-34
2022/07/15 06:24:53;;;;;;;2.58;1.30;;;14.00;99.90;;;;;;4882846;28;89687;-34
2022/07/15 06:27:21;;;;;;;7.65;3.05;;;14.00;99.90;;;;;;4882586;28;89060;-33
2022/07/15 06:29:47;;;;;;;3.13;1.85;;;14.00;99.90;;;;;;4877606;28;91199;-31
2022/07/15 06:32:13;;;;;;;7.97;1.67;;;14.00;99.90;;;;;;4884531;28;90680;-32
2022/07/15 06:34:39;;;;;;;2.97;2.58;;;14.00;99.90;;;;;;4884383;28;91156;-31
2022/07/15 06:37:05;;;;;;;3.65;1.73;;;14.00;99.90;;;;;;4884423;28;89567;-31
2022/07/15 06:39:31;;;;;;;17.20;3.78;;;14.10;99.90;;;;;;4885116;28;90416;-33
2022/07/15 06:41:56;;;;;;;14.85;3.72;;;14.30;99.90;;;;;;4888990;28;90187;-32
2022/07/15 06:44:22;;;;;;;6.95;1.90;;;14.40;99.90;;;;;;4884937;28;89616;-33
2022/07/15 06:46:48;;;;;;;9.20;2.13;;;14.60;99.90;;;;;;4887586;28;87969;-33
2022/07/15 06:49:13;;;;;;;3.90;1.35;;;14.70;99.90;;;;;;4890975;28;90064;-33
2022/07/15 06:51:39;;;;;;;3.03;1.65;;;14.90;99.90;;;;;;4890150;28;90026;-30
2022/07/15 06:54:07;;;;;;;3.95;1.45;;;15.10;99.90;;;;;;4892100;28;89708;-31
2022/07/15 06:56:33;;;;;;;14.03;2.17;;;15.40;99.90;;;;;;4885907;28;90436;-31
2022/07/15 06:58:58;;;;;;;2.63;1.30;;;15.60;99.90;;;;;;4886018;28;88915;-34
2022/07/15 07:01:24;;;;;;;2.75;1.20;;;15.80;99.90;;;;;;4884054;28;90012;-32
2022/07/15 07:03:50;;;;;;;3.25;1.17;;;16.00;99.90;;;;;;4885402;28;89385;-33
2022/07/15 07:06:16;;;;;;;2.15;1.30;;;16.20;99.90;;;;;;4901106;28;88486;-30
2022/07/15 07:08:41;;;;;;;1.58;1.05;;;16.30;99.90;;;;;;4899729;28;90213;-32
2022/07/15 07:11:07;;;;;;;1.65;0.70;;;16.50;99.90;;;;;;4899380;28;87887;-30
2022/07/15 07:13:33;;;;;;;4.68;1.08;;;16.60;99.90;;;;;;4892695;28;89121;-31
2022/07/15 07:15:59;;;;;;;4.00;1.48;;;16.70;99.90;;;;;;4894019;28;87645;-44
2022/07/15 07:18:25;;;;;;;0.80;0.80;;;16.80;99.90;;;;;;4893561;28;90737;-37
2022/07/15 07:20:51;;;;;;;1.20;1.05;;;16.80;99.90;;;;;;4894643;28;90746;-36
2022/07/15 07:23:16;;;;;;;1.23;1.13;;;16.90;99.90;;;;;;4893130;28;90819;-37
2022/07/15 07:25:42;;;;;;;5.15;1.40;;;16.90;99.90;;;;;;4893797;28;88793;-39
2022/07/15 07:28:08;;;;;;;1.10;0.60;;;16.90;99.90;;;;;;4893205;28;90399;-35
2022/07/15 07:30:34;;;;;;;2.42;0.80;;;16.90;99.90;;;;;;4889565;28;89685;-34
2022/07/15 07:32:59;;;;;;;2.58;1.55;;;16.90;99.90;;;;;;4893132;28;89441;-40
2022/07/15 07:35:25;;;;;;;1.52;0.90;;;17.00;99.90;;;;;;4895707;28;89337;-37
2022/07/15 07:37:51;;;;;;;0.85;0.85;;;17.20;99.90;;;;;;4879696;28;90883;-34
2022/07/15 07:40:17;;;;;;;2.08;1.38;;;17.40;99.90;;;;;;4875276;28;89628;-33
2022/07/15 07:42:46;;;;;;;4.47;1.38;;;17.80;99.90;;;;;;4886915;28;89535;-38
2022/07/15 07:45:11;;;;;;;2.25;1.23;;;18.10;99.90;;;;;;4886261;28;89093;-36
2022/07/15 07:47:40;;;;;;;2.80;1.27;;;18.30;99.90;;;;;;4893079;28;90326;-42
2022/07/15 07:50:07;;;;;;;4.68;0.85;;;18.60;99.90;;;;;;4887828;28;89423;-36
2022/07/15 07:52:33;;;;;;;1.97;0.60;;;18.90;99.90;;;;;;4887867;28;88829;-36
2022/07/15 07:54:59;;;;;;;0.95;0.68;;;19.10;99.90;;;;;;4884143;28;88675;-39
2022/07/15 07:57:24;;;;;;;2.30;0.98;;;19.10;99.90;;;;;;4889197;28;89073;-36
2022/07/15 07:59:50;;;;;;;1.10;0.60;;;19.00;99.90;;;;;;4886342;28;90679;-38
2022/07/15 08:02:15;;;;;;;4.15;1.02;;;19.00;99.90;;;;;;4887561;28;90296;-33
2022/07/15 08:04:41;;;;;;;2.25;0.93;;;19.10;99.90;;;;;;4898651;28;87692;-38
2022/07/15 08:07:07;;;;;;;1.67;0.80;;;19.20;99.90;;;;;;4912898;28;90564;-35
2022/07/15 08:09:33;;;;;;;1.13;1.00;;;19.40;99.90;;;;;;4911967;28;90563;-35
2022/07/15 08:11:59;;;;;;;2.53;1.10;;;19.60;99.90;;;;;;4911602;28;90145;-36
2022/07/15 08:14:25;;;;;;;19.10;3.22;;;19.90;99.90;;;;;;4910421;28;87770;-32
2022/07/15 08:16:51;;;;;;;3.42;0.70;;;20.00;99.90;;;;;;4911914;28;90617;-35
2022/07/15 08:19:19;;;;;;;2.88;0.80;;;20.10;99.90;;;;;;4911500;28;89633;-37
2022/07/15 08:21:45;;;;;;;2.40;0.60;;;20.20;99.90;;;;;;4912409;28;89737;-42
2022/07/15 08:24:12;;;;;;;2.92;0.90;;;20.10;99.90;;;;;;4910152;28;87857;-35
2022/07/15 08:26:38;;;;;;;4.82;0.70;;;19.90;99.90;;;;;;4892464;28;90282;-40
2022/07/15 08:29:04;;;;;;;3.88;0.60;;;19.70;99.90;;;;;;4890288;28;88714;-34
2022/07/15 08:31:30;;;;;;;0.55;0.50;;;19.60;99.90;;;;;;4888048;28;89187;-40
2022/07/15 08:33:56;;;;;;;12.10;1.30;;;19.90;99.90;;;;;;4891198;28;88626;-33
2022/07/15 08:36:22;;;;;;;7.90;1.60;;;20.00;99.90;;;;;;4888703;28;90338;-37
2022/07/15 08:38:48;;;;;;;2.00;1.30;;;20.30;99.90;;;;;;4893088;28;89777;-34
2022/07/15 08:41:15;;;;;;;2.17;0.63;;;20.60;99.90;;;;;;4892480;28;88056;-38
2022/07/15 08:43:41;;;;;;;1.80;0.63;;;20.60;99.90;;;;;;4891630;28;88683;-37
2022/07/15 08:46:07;;;;;;;1.85;1.42;;;20.50;99.90;;;;;;4900544;28;90221;-40
2022/07/15 08:48:36;;;;;;;0.65;0.50;;;20.30;99.90;;;;;;4905329;28;89684;-43
2022/07/15 08:51:04;;;;;;;1.02;0.70;;;20.00;99.90;;;;;;4908873;28;89580;-41
2022/07/15 08:53:31;;;;;;;;;;;19.70;99.90;;;;;;4908022;28;88357;-39
2022/07/15 08:56:00;;;;;;;5.78;1.00;;;19.50;99.90;;;;;;4909872;28;90327;-36
2022/07/15 08:58:26;;;;;;;7.78;1.35;;;19.30;99.90;;;;;;4908894;28;90374;-39
2022/07/15 09:00:52;;;;;;;6.95;1.25;;;19.20;99.90;;;;;;4910162;28;90117;-35
2022/07/15 09:03:18;;;;;;;1.35;1.00;;;19.10;99.90;;;;;;4908519;28;87652;-39
2022/07/15 09:05:44;;;;;;;9.18;1.33;;;19.10;99.90;;;;;;4907625;28;89218;-36
2022/07/15 09:08:10;;;;;;;3.55;1.20;;;19.40;99.90;;;;;;4904595;28;89648;-37
2022/07/15 09:10:55;;;;;;;1.73;0.93;;;19.70;99.90;;;;;;4906700;28;90643;-35
2022/07/15 09:13:33;;;;;;;1.55;0.70;;;20.10;99.90;;;;;;4909207;28;88148;-40
2022/07/15 09:16:00;;;;;;;;;;;20.60;99.90;;;;;;4912776;28;90093;-40
2022/07/15 09:18:29;;;;;;;2.63;0.43;;;20.70;99.90;;;;;;4914122;28;88554;-41
2022/07/15 09:20:55;;;;;;;3.55;0.70;;;20.50;99.90;;;;;;4913476;28;88220;-35
2022/07/15 09:23:29;;;;;;;1.30;0.68;;;20.30;99.90;;;;;;4912754;28;88562;-34
2022/07/15 09:26:15;;;;;;;1.13;1.02;;;20.10;99.90;;;;;;4912852;28;89693;-38
2022/07/15 09:28:44;;;;;;;3.30;1.00;;;19.90;99.90;;;;;;4912647;28;89912;-39
2022/07/15 09:34:01;;;;;;;1.05;0.63;;;19.40;99.90;;;;;;4914269;28;88538;-38
2022/07/15 09:36:30;;;;;;;2.83;1.48;;;19.10;99.90;;;;;;4911755;28;90261;-35
2022/07/15 09:38:55;;;;;;;1.65;0.60;;;18.90;99.90;;;;;;4912652;28;89260;-33
2022/07/15 09:41:41;;;;;;;50.80;7.30;;;18.80;99.90;;;;;;4913038;28;88371;-41
2022/07/15 09:44:19;;;;;;;6.68;0.80;;;18.60;99.90;;;;;;4913030;28;87900;-37
2022/07/15 09:46:52;;;;;;;0.85;0.50;;;18.60;99.90;;;;;;4913024;28;90361;-36
2022/07/15 09:49:27;;;;;;;0.50;0.50;;;18.50;99.90;;;;;;4910595;28;90667;-38
2022/07/15 09:51:57;;;;;;;7.43;0.80;;;18.50;99.90;;;;;;4900275;28;90626;-35
2022/07/15 09:54:25;;;;;;;24.67;3.83;;;18.40;99.90;;;;;;4893212;28;88694;-37
2022/07/15 09:56:51;;;;;;;0.82;0.63;;;18.50;99.90;;;;;;4906714;28;89637;-38
2022/07/15 09:59:19;;;;;;;2.30;0.40;;;18.60;99.90;;;;;;4886655;28;90332;-38
2022/07/15 10:01:47;;;;;;;6.05;1.35;;;18.70;99.90;;;;;;4910164;28;88761;-37
2022/07/15 10:04:16;;;;;;;2.05;0.50;;;18.80;99.90;;;;;;4913061;28;88428;-34
2022/07/15 10:06:42;;;;;;;2.00;0.95;;;19.00;99.90;;;;;;4912881;28;90260;-40
2022/07/15 10:09:09;;;;;;;0.88;0.57;;;19.00;99.90;;;;;;4908053;28;89747;-37
2022/07/15 10:11:40;;;;;;;2.42;0.70;;;19.00;99.90;;;;;;4912664;28;89616;-36
2022/07/15 10:14:30;;;;;;;21.13;2.13;;;18.90;99.90;;;;;;4911934;28;88598;-33
2022/07/15 10:17:20;;;;;;;5.72;1.15;;;18.80;99.90;;;;;;4911513;28;90677;-40
2022/07/15 10:20:23;;;;;;;3.53;1.58;;;18.60;99.90;;;;;;4909354;28;89206;-39
2022/07/15 10:22:57;;;;;;;1.65;0.68;;;18.50;99.90;;;;;;4912395;28;89546;-32
2022/07/15 10:25:41;;;;;;;7.22;1.08;;;18.40;99.90;;;;;;4910997;28;87876;-40
2022/07/15 10:28:14;;;;;;;15.75;2.05;;;18.30;99.90;;;;;;4912474;28;89118;-38
2022/07/15 10:30:42;;;;;;;3.22;1.35;;;18.20;99.90;;;;;;4910780;28;89554;-37
2022/07/15 10:33:13;;;;;;;7.95;0.80;;;18.30;99.90;;;;;;4913504;28;89924;-33
2022/07/15 10:35:45;;;;;;;5.28;0.73;;;18.40;99.90;;;;;;4911853;28;88823;-39
2022/07/15 10:38:32;;;;;;;5.05;1.10;;;18.40;99.90;;;;;;4910942;28;90658;-37
2022/07/15 10:41:09;;;;;;;0.60;0.55;;;18.50;99.90;;;;;;4910909;28;90691;-35
2022/07/15 10:43:49;;;;;;;1.08;0.80;;;18.60;99.90;;;;;;4911302;28;90826;-37
2022/07/15 10:46:18;;;;;;;0.52;0.50;;;18.70;99.90;;;;;;4910696;28;87916;-32
2022/07/15 10:49:05;;;;;;;3.40;0.63;;;18.90;99.90;;;;;;4910325;28;89008;-41
2022/07/15 10:51:36;;;;;;;0.63;0.63;;;19.00;99.90;;;;;;4906515;28;90144;-42
2022/07/15 10:54:07;;;;;;;1.13;0.60;;;19.10;99.90;;;;;;4909920;28;89641;-37
2022/07/15 10:56:34;;;;;;;1.88;0.70;;;19.20;99.90;;;;;;4910994;28;87467;-33
2022/07/15 10:59:07;;;;;;;1.17;0.80;;;19.50;99.90;;;;;;4909784;28;88851;-35
2022/07/15 11:01:33;;;;;;;2.38;0.93;;;19.90;99.90;;;;;;4909462;28;89542;-44
2022/07/15 11:04:22;;;;;;;3.05;0.60;;;20.40;99.90;;;;;;4912885;28;89295;-40
2022/07/15 11:07:03;;;;;;;22.85;3.40;;;20.70;99.90;;;;;;4909739;28;88116;-36
2022/07/15 11:10:06;;;;;;;5.85;1.70;;;21.00;99.90;;;;;;4912185;28;90515;-39
2022/07/15 11:12:32;;;;;;;4.38;1.02;;;21.20;99.90;;;;;;4887390;28;90032;-36
2022/07/15 11:14:59;;;;;;;5.25;1.30;;;21.30;99.90;;;;;;4906337;28;90378;-37
2022/07/15 11:17:39;;;;;;;1.83;0.57;;;21.40;99.90;;;;;;4908894;28;87538;-36
2022/07/15 11:20:14;;;;;;;8.35;1.48;;;21.50;99.90;;;;;;4909499;28;90457;-37
2022/07/15 11:22:49;;;;;;;21.85;3.17;;;21.50;99.90;;;;;;4910247;28;89298;-38
2022/07/15 11:25:22;;;;;;;6.50;1.10;;;21.60;99.90;;;;;;4909440;28;90692;-35
2022/07/15 11:28:00;;;;;;;0.55;0.47;;;21.80;99.90;;;;;;4908224;28;88445;-37
2022/07/15 11:30:28;;;;;;;1.63;0.77;;;21.80;97.10;;;;;;4909444;28;89255;-35
2022/07/15 11:32:58;;;;;;;0.88;0.75;;;21.70;99.90;;;;;;4910346;28;90650;-38
2022/07/15 11:35:25;;;;;;;11.88;2.22;;;21.70;99.90;;;;;;4913028;28;90626;-36
2022/07/15 11:38:01;;;;;;;1.33;0.85;;;21.70;99.90;;;;;;4911241;28;88751;-39
2022/07/15 11:45:59;;;;;;;25.08;2.95;;;21.80;99.90;;;;;;4911095;28;90073;-43
2022/07/15 11:48:24;;;;;;;0.70;0.65;;;21.90;98.30;;;;;;4911946;28;88077;-39
2022/07/15 11:50:53;;;;;;;17.70;3.53;;;22.00;94.70;;;;;;4913604;28;90903;-36
2022/07/15 11:53:19;;;;;;;7.15;1.13;;;22.00;98.20;;;;;;4913851;28;91831;-38
2022/07/15 11:55:56;;;;;;;1.73;1.02;;;22.10;97.50;;;;;;4913524;28;89787;-40
2022/07/15 11:58:26;;;;;;;2.60;0.80;;;21.90;95.50;;;;;;4910236;28;88122;-42
2022/07/15 12:00:52;;;;;;;3.53;1.17;;;21.70;98.90;;;;;;4906824;28;90079;-39
2022/07/15 12:03:18;;;;;;;3.25;0.50;;;21.20;98.50;;;;;;4905436;28;89625;-38
2022/07/15 12:06:00;;;;;;;4.18;0.93;;;20.80;99.90;;;;;;4896088;28;89594;-36
2022/07/15 12:08:42;;;;;;;2.60;0.85;;;20.50;99.90;;;;;;4952724;23;87955;-33
2022/07/15 12:11:30;;;;;;;1.58;0.88;;;20.20;99.90;;;;;;4932298;28;90618;-33
2022/07/15 12:14:09;;;;;;;;;;;20.00;99.90;;;;;;4923481;28;90595;-34
2022/07/15 12:16:42;;;;;;;1.10;0.60;;;19.90;99.90;;;;;;4926246;28;88801;-33
2022/07/15 12:19:23;;;;;;;1.98;0.65;;;19.90;99.90;;;;;;4920147;28;88659;-34
2022/07/15 12:21:52;;;;;;;1.30;0.95;;;19.90;99.90;;;;;;4921216;28;90106;-32
2022/07/15 12:24:20;;;;;;;1.67;0.70;;;19.90;99.90;;;;;;4919080;28;90770;-34
2022/07/15 12:26:52;;;;;;;;;;;19.90;99.90;;;;;;4928947;28;90410;-33
2022/07/15 12:29:20;;;;;;;0.70;0.70;;;20.00;99.90;;;;;;4933587;28;88923;-36
2022/07/15 12:31:53;;;;;;;;;;;20.00;99.90;;;;;;4932035;28;90029;-35
2022/07/15 12:34:19;;;;;;;1.25;0.57;;;20.10;99.90;;;;;;4922156;28;88948;-35
2022/07/15 12:36:55;;;;;;;2.35;1.10;;;20.10;99.90;;;;;;4928728;28;89175;-33
2022/07/15 12:39:21;;;;;;;3.63;1.63;;;20.10;99.90;;;;;;4926921;28;88622;-35
2022/07/15 12:42:00;;;;;;;2.80;0.98;;;20.00;99.90;;;;;;4925993;28;90311;-34
2022/07/15 12:44:26;;;;;;;1.48;1.00;;;19.90;99.90;;;;;;4921565;28;89944;-36
2022/07/15 12:46:55;;;;;;;0.75;0.70;;;19.90;99.90;;;;;;4928156;28;89182;-33
2022/07/15 12:49:59;;;;;;;1.10;1.00;;;19.90;99.90;;;;;;4929492;28;88494;-33
2022/07/15 12:52:31;;;;;;;9.25;1.20;;;19.90;99.90;;;;;;4923290;28;90325;-31
2022/07/15 12:54:58;;;;;;;1.90;0.50;;;20.00;99.90;;;;;;4923108;28;89826;-33
2022/07/15 12:57:36;;;;;;;1.83;0.60;;;20.20;99.90;;;;;;4932273;28;90402;-33
2022/07/15 13:00:15;;;;;;;0.60;0.60;;;20.30;99.90;;;;;;4927400;28;89413;-35
2022/07/15 13:03:09;;;;;;;2.08;0.85;;;20.40;99.90;;;;;;4922772;28;91121;-35
2022/07/15 13:05:38;;;;;;;2.92;1.38;;;20.70;99.90;;;;;;4921742;28;89876;-33
2022/07/15 13:08:14;;;;;;;2.47;1.02;;;20.90;99.90;;;;;;4925318;28;90275;-35